Hialeah, Florida
Current Conditions -  °F | °C
As of 5:53 AM on Saturday 25 Oct 2014 (Local Time) from KMIA Reporting Station
Few Clouds Few Clouds  
Wind Chill: 70°   Ceiling: Unl
Heat Index: 70°   Visibility: 10mi
Dew Point: 62°   Wind: 6mph
Humidity: 76%   Direction: 330°NNW
Pressure: 29.87"   Gusts: NA
Location:  25.86°N, 80.29°W
Report Text: KMIA 250953Z 33005KT 10SM FEW030 21/17 A2987 RMK AO2 SLP114 T02110167
Loading
Personal Weather Stations






























Interactive Weather Map New forecast layout! Learn more

10-Day Weather Forecast

Advertisements
Track Severe Weather on mobile